Airfield :
LOGIN :

Register | Disclaimer

   EN    FR    IT 

 










Legend :    VFR   Marginal VFR   IFR   Intensive IFR   Very Intensive IFR
Visi :
Ceiling :
>= 8 km
>= 3000ft
5 to 8 km
1000 to 3000 ft
1500m to 5 km
500 to 1000 ft
800 to 1500m
200 to 500 ft
< 800m
< 200 ft
Symbols :   Thunderstorms  Fog  Heavy snow  Heavy precipitations  Wind > 20 kt
SIGMETs :     Misc.  Thunderstorms  Icing  Turbulence  Mountain Waves  Volcanic Ashes






- Airport Elevation : 297 ft


EGVP - Middle Wallop

CURRENT METAR :
  • 241250Z AUTO 21001KT 9999 // BKN011/// BKN052/// 07/04 Q0995

EXPIRED METARs :
  • 241220Z AUTO 14003KT 9999 // FEW009/// SCT031/// BKN051/// 07/04 Q0994
  • 241150Z AUTO 06001KT 9999 -RA OVC028/// 06/04 Q0994
  • 241120Z AUTO 08002KT 9999 // SCT004/// BKN030/// BKN046/// 04/04 Q0994
  • 241050Z AUTO 08002KT 9999 // FEW003/// OVC026/// 04/03 Q0994
  • 241020Z AUTO 24001KT 9999 -RA FEW004/// OVC022/// 03/03 Q0994
  • 240950Z AUTO 06002KT 6000 -RA FEW003/// SCT008/// OVC022/// 02/01 Q0994
  • 240920Z AUTO 02002KT 9999 BKN037/// SCT100/// 00/00 Q0993
  • 240850Z AUTO 34002KT 9999 BKN037/// SCT057/// M00/M00 Q0993
  • 240820Z AUTO 33002KT 9999 FEW130/// M01/M01 Q0993

Expired Forecast.
ATIS : +44 1980 674 142



MET'MAP, your aeronautical weather chart ! - Copyright ORBIFLY December 2007 - Disclaimer

ORBIFLY MET'MAP TEAM :

Programming & Development : Alexandra Zaïnal
Original concept : Baudouin d'Aumeries
Technical & hardware support : Manuel Goepfert
Assistance : Marc-Olivier Méhu




SOURCES & CREDITS :

   NOAA